createdAt,value
2023-04-17T00:01:11.004Z,10.00
2023-04-17T00:06:17.584Z,9.25
2023-04-17T00:11:22.655Z,8.50
2023-04-17T00:16:28.538Z,12.00
2023-04-17T00:21:34.487Z,11.00
2023-04-17T00:26:39.456Z,9.00
2023-04-17T00:31:44.824Z,8.75
2023-04-17T00:36:49.805Z,9.75
2023-04-17T00:41:54.761Z,10.00
2023-04-17T00:46:59.697Z,9.75
2023-04-17T00:52:05.683Z,10.25
2023-04-17T00:57:10.608Z,9.25
2023-04-17T01:02:15.743Z,9.00
2023-04-17T01:07:20.677Z,6.75
2023-04-17T01:12:26.773Z,7.00
2023-04-17T01:17:31.828Z,7.75
2023-04-17T01:22:36.872Z,8.00
2023-04-17T01:27:42.026Z,7.00
2023-04-17T01:32:47.656Z,8.00
2023-04-17T01:37:52.557Z,8.25
2023-04-17T01:42:57.687Z,8.00
2023-04-17T01:48:02.662Z,5.25
2023-04-17T01:53:07.687Z,8.50
2023-04-17T01:58:12.788Z,8.00
2023-04-17T02:03:18.328Z,6.75
2023-04-17T02:08:23.428Z,6.50
2023-04-17T02:13:29.110Z,7.50
2023-04-17T02:18:34.144Z,5.00
2023-04-17T02:23:39.232Z,6.00
2023-04-17T02:28:47.142Z,6.00
2023-04-17T02:33:52.326Z,4.75
2023-04-17T02:38:57.289Z,6.75
2023-04-17T02:44:03.317Z,6.00
2023-04-17T02:49:09.686Z,6.50
2023-04-17T02:54:16.155Z,4.25
2023-04-17T02:59:21.744Z,5.75
2023-04-17T03:04:26.917Z,6.25
2023-04-17T03:09:32.491Z,7.00
2023-04-17T03:14:37.761Z,7.00
2023-04-17T03:19:42.667Z,6.00
2023-04-17T03:24:47.454Z,5.00
2023-04-17T03:29:53.099Z,5.75
2023-04-17T03:34:58.113Z,7.00
2023-04-17T03:40:03.209Z,5.75
2023-04-17T03:45:08.736Z,4.75
2023-04-17T03:50:14.027Z,4.50
2023-04-17T03:55:25.993Z,5.50
2023-04-17T04:00:33.094Z,5.00
2023-04-17T04:05:44.438Z,5.00
2023-04-17T04:10:49.707Z,4.00
2023-04-17T04:16:00.060Z,5.00
2023-04-17T04:21:07.642Z,7.00
2023-04-17T04:26:18.230Z,5.00
2023-04-17T04:31:32.363Z,3.75
2023-04-17T04:36:43.393Z,5.00
2023-04-17T04:41:57.066Z,6.75
2023-04-17T04:47:06.115Z,4.00
2023-04-17T04:52:11.995Z,5.25
2023-04-17T04:57:17.024Z,6.25
2023-04-17T05:02:24.825Z,6.00
2023-04-17T05:07:30.913Z,7.00
2023-04-17T05:12:36.777Z,5.00
2023-04-17T05:17:45.017Z,5.00
2023-04-17T05:22:51.735Z,5.75
2023-04-17T05:27:58.956Z,5.25
2023-04-17T05:33:04.525Z,4.25
2023-04-17T05:38:24.371Z,5.00
2023-04-17T05:43:29.540Z,5.25
2023-04-17T05:48:34.865Z,5.50
2023-04-17T05:53:42.449Z,5.75
2023-04-17T05:58:47.455Z,6.25
2023-04-17T06:03:52.564Z,5.00
2023-04-17T06:09:03.064Z,5.50
2023-04-17T06:14:08.059Z,4.25
2023-04-17T06:19:14.344Z,6.00
2023-04-17T06:24:22.040Z,4.50
2023-04-17T06:29:27.274Z,5.50
2023-04-17T06:34:32.716Z,5.00
2023-04-17T06:39:38.267Z,6.00
2023-04-17T06:44:43.437Z,4.75
2023-04-17T06:49:50.732Z,6.00
2023-04-17T06:55:01.134Z,5.75
2023-04-17T07:00:06.417Z,4.00
2023-04-17T07:05:12.934Z,6.00
2023-04-17T07:10:17.777Z,4.00
2023-04-17T07:15:23.069Z,5.50
2023-04-17T07:20:29.211Z,7.00
2023-04-17T07:25:34.228Z,7.75
2023-04-17T07:30:39.215Z,4.25
2023-04-17T07:35:45.049Z,5.50
2023-04-17T07:40:49.834Z,6.00
2023-04-17T07:45:55.052Z,7.50
2023-04-17T07:51:05.526Z,5.75
2023-04-17T07:56:11.666Z,5.50
2023-04-17T08:01:17.757Z,5.50
2023-04-17T08:06:22.800Z,4.25
2023-04-17T08:11:27.822Z,5.50
2023-04-17T08:16:33.449Z,5.25
2023-04-17T08:21:38.507Z,5.00
2023-04-17T08:26:43.741Z,7.00
2023-04-17T08:31:53.344Z,4.75
2023-04-17T08:37:02.459Z,6.25
2023-04-17T08:42:16.784Z,6.25
2023-04-17T08:47:23.837Z,12.50
2023-04-17T08:52:28.829Z,17.00
2023-04-17T08:57:33.750Z,19.00
2023-04-17T09:02:54.037Z,19.00
2023-04-17T09:08:09.084Z,21.50
2023-04-17T09:13:17.576Z,21.50
2023-04-17T09:18:32.573Z,20.25
2023-04-17T09:23:51.423Z,21.75
2023-04-17T09:29:03.559Z,16.25
2023-04-17T09:34:09.486Z,20.75
2023-04-17T09:39:27.008Z,21.50
2023-04-17T09:44:32.854Z,19.50
2023-04-17T09:49:58.293Z,21.75
2023-04-17T09:55:08.334Z,19.00
2023-04-17T10:00:16.499Z,19.50
2023-04-17T10:05:22.062Z,19.00
2023-04-17T10:10:28.132Z,18.50
2023-04-17T10:15:34.335Z,18.50
2023-04-17T10:20:40.062Z,16.50
2023-04-17T10:25:44.806Z,14.50
2023-04-17T10:30:55.562Z,15.25
2023-04-17T10:36:00.585Z,14.25
2023-04-17T10:41:07.019Z,14.25
2023-04-17T10:46:16.130Z,16.25
2023-04-17T10:51:30.399Z,12.50
2023-04-17T10:56:40.011Z,13.00
2023-04-17T11:01:52.130Z,14.00
2023-04-17T11:06:57.278Z,14.75
2023-04-17T11:12:05.349Z,15.25
2023-04-17T11:17:11.149Z,15.25
2023-04-17T11:22:18.513Z,17.50
2023-04-17T11:27:24.497Z,14.75
2023-04-17T11:32:30.194Z,16.00
2023-04-17T11:37:35.157Z,15.25
2023-04-17T11:42:46.136Z,17.00
2023-04-17T11:47:51.490Z,17.00
2023-04-17T11:53:00.413Z,15.50
2023-04-17T11:58:09.208Z,13.50
2023-04-17T12:03:37.406Z,15.25
2023-04-17T12:08:48.979Z,14.50
2023-04-17T12:13:54.354Z,13.50
2023-04-17T12:19:00.172Z,14.00
2023-04-17T12:24:05.911Z,12.50
2023-04-17T12:29:10.754Z,13.75
2023-04-17T12:34:16.108Z,15.00
2023-04-17T12:39:21.636Z,17.50
2023-04-17T12:44:26.484Z,15.25
2023-04-17T12:49:31.539Z,15.00
2023-04-17T12:54:36.849Z,13.50
2023-04-17T12:59:41.898Z,16.25
2023-04-17T13:04:47.356Z,16.00
2023-04-17T13:09:53.157Z,14.25
2023-04-17T13:14:58.995Z,16.00
2023-04-17T13:20:03.906Z,15.00
2023-04-17T13:25:09.318Z,11.75
2023-04-17T13:30:14.359Z,16.25
2023-04-17T13:35:19.659Z,14.75
2023-04-17T13:40:25.060Z,12.00
2023-04-17T13:45:30.660Z,13.00
2023-04-17T13:50:35.939Z,14.00
2023-04-17T13:55:40.868Z,14.00
2023-04-17T14:00:46.252Z,14.00
2023-04-17T14:05:52.369Z,13.00
2023-04-17T14:10:58.194Z,13.00
2023-04-17T14:16:03.413Z,11.00
2023-04-17T14:21:08.720Z,13.00
2023-04-17T14:26:15.108Z,12.00
2023-04-17T14:31:20.241Z,13.50
2023-04-17T14:36:26.024Z,12.00
2023-04-17T14:41:35.432Z,16.00
2023-04-17T14:46:40.963Z,12.00
2023-04-17T14:51:46.312Z,12.75
2023-04-17T14:56:51.757Z,13.00
2023-04-17T15:01:57.403Z,11.50
2023-04-17T15:07:02.629Z,15.75
2023-04-17T15:12:07.847Z,14.50
2023-04-17T15:17:12.881Z,11.50
2023-04-17T15:22:17.996Z,13.50
2023-04-17T15:27:22.807Z,11.25
2023-04-17T15:32:28.166Z,11.75
2023-04-17T15:37:33.346Z,12.00
2023-04-17T15:42:38.548Z,11.50
2023-04-17T15:47:43.717Z,11.50
2023-04-17T15:52:49.022Z,12.00
2023-04-17T15:57:53.610Z,13.50
2023-04-17T16:02:58.771Z,13.00
2023-04-17T16:08:03.878Z,12.50
2023-04-17T16:13:08.912Z,12.00
2023-04-17T16:18:14.453Z,11.00
2023-04-17T16:23:19.457Z,13.50
2023-04-17T16:28:26.334Z,9.50
2023-04-17T16:33:31.244Z,13.50
2023-04-17T16:38:37.919Z,11.25
2023-04-17T16:43:43.916Z,14.25
2023-04-17T16:48:48.479Z,13.00
2023-04-17T16:53:53.271Z,13.00
2023-04-17T16:58:57.991Z,13.50
2023-04-17T17:04:02.288Z,12.75
2023-04-17T17:09:06.899Z,11.00
2023-04-17T17:14:11.713Z,11.75
2023-04-17T17:19:16.407Z,11.25
2023-04-17T17:24:20.868Z,10.75
2023-04-17T17:29:25.439Z,13.00
2023-04-17T17:34:30.495Z,10.25
2023-04-17T17:39:35.223Z,11.50
2023-04-17T17:44:39.918Z,13.00
2023-04-17T17:49:44.544Z,11.75
2023-04-17T17:54:48.957Z,9.50
2023-04-17T17:59:53.418Z,12.50
2023-04-17T18:04:57.858Z,13.00
2023-04-17T18:10:02.139Z,11.25
2023-04-17T18:15:06.841Z,12.50
2023-04-17T18:20:11.509Z,12.75
2023-04-17T18:25:15.796Z,10.50
2023-04-17T18:30:20.465Z,11.50
2023-04-17T18:35:24.665Z,13.50
2023-04-17T18:40:29.061Z,12.00
2023-04-17T18:45:33.478Z,11.75
2023-04-17T18:50:39.756Z,11.75
2023-04-17T18:55:44.300Z,12.75
2023-04-17T19:00:48.645Z,12.25
2023-04-17T19:05:53.035Z,11.50
2023-04-17T19:10:57.517Z,10.50
2023-04-17T19:16:01.988Z,12.75
2023-04-17T19:21:06.685Z,11.50
2023-04-17T19:26:11.132Z,11.00
2023-04-17T19:31:15.517Z,11.00
2023-04-17T19:36:20.009Z,11.25
2023-04-17T19:41:24.536Z,12.50
2023-04-17T19:46:30.216Z,11.50
2023-04-17T19:51:35.639Z,12.25
2023-04-17T19:56:40.785Z,11.00
2023-04-17T20:01:46.738Z,12.50
2023-04-17T20:06:51.152Z,11.00
2023-04-17T20:11:55.604Z,11.00
2023-04-17T20:17:01.570Z,13.00
2023-04-17T20:22:06.070Z,12.25
2023-04-17T20:27:10.466Z,12.25
2023-04-17T20:32:14.816Z,11.75
2023-04-17T20:37:19.933Z,11.00
2023-04-17T20:42:25.194Z,10.50
2023-04-17T20:47:29.897Z,12.75
2023-04-17T20:52:34.746Z,13.50
2023-04-17T20:57:39.522Z,12.25
2023-04-17T21:02:44.885Z,13.00
2023-04-17T21:07:51.405Z,11.75
2023-04-17T21:12:56.970Z,11.75
2023-04-17T21:18:01.296Z,13.25
2023-04-17T21:23:05.629Z,12.50
2023-04-17T21:28:10.005Z,12.00
2023-04-17T21:33:14.268Z,12.75
2023-04-17T21:38:18.817Z,13.25
2023-04-17T21:43:23.196Z,12.75
2023-04-17T21:48:27.599Z,11.75
2023-04-17T21:53:32.372Z,14.50
2023-04-17T21:58:36.984Z,13.00
2023-04-17T22:03:41.229Z,13.50
2023-04-17T22:08:46.825Z,12.50
2023-04-17T22:13:51.331Z,13.00
2023-04-17T22:18:55.655Z,10.50
2023-04-17T22:24:18.481Z,11.25
2023-04-17T22:29:58.894Z,13.00
2023-04-17T22:35:21.218Z,20.50
2023-04-17T22:40:25.689Z,19.75
2023-04-17T22:45:31.486Z,19.25
2023-04-17T22:50:36.408Z,18.75
2023-04-17T22:55:41.380Z,17.75
2023-04-17T23:00:46.608Z,17.75
2023-04-17T23:05:51.967Z,22.25
2023-04-17T23:11:00.990Z,19.00
2023-04-17T23:16:06.013Z,21.50
2023-04-17T23:21:11.144Z,21.50
2023-04-17T23:26:16.132Z,26.50
2023-04-17T23:31:21.078Z,24.25
2023-04-17T23:36:26.498Z,27.00
2023-04-17T23:41:31.599Z,27.75
2023-04-17T23:46:36.734Z,27.25
2023-04-17T23:51:41.716Z,26.00
2023-04-17T23:56:46.765Z,27.00
